Time;durP1;ratioP1;P1;durP2;ratioP2;P2;SDS_P1;SDS_P2;PMS_P1;PMS_P2;Temp;Humidity;BMP_temperature;BMP_pressure;BME280_temperature;BME280_humidity;BME280_pressure;Samples;Min_cycle;Max_cycle;Signal;HPM_P1;HPM_P2
2022/05/05 00:01:45;;;;;;;10.32;4.85;;;;;;;21.80;34.28;101707.78;5046484;28;20075;-67
2022/05/05 00:04:11;;;;;;;12.75;4.80;;;;;;;21.78;33.99;101707.09;5055616;28;20028;-66
2022/05/05 00:06:37;;;;;;;9.13;3.92;;;;;;;21.73;34.11;101704.06;5036854;28;20025;-67
2022/05/05 00:09:02;;;;;;;14.10;5.47;;;;;;;21.67;34.43;101700.19;5024580;28;20024;-67
2022/05/05 00:14:24;;;;;;;14.23;4.47;;;;;;;21.59;34.47;101707.56;5028759;28;20073;-66
2022/05/05 00:16:56;;;;;;;7.13;4.28;;;;;;;21.56;34.85;101699.75;5019680;28;20030;-67
2022/05/05 00:19:22;;;;;;;11.05;4.68;;;;;;;21.53;34.72;101702.84;5014548;28;20053;-67
2022/05/05 00:21:47;;;;;;;10.52;4.47;;;;;;;21.50;34.82;101701.31;5014528;28;20032;-67
2022/05/05 00:24:13;;;;;;;12.52;4.75;;;;;;;21.48;34.67;101706.09;5014520;28;20352;-67
2022/05/05 00:26:39;;;;;;;11.00;5.20;;;;;;;21.43;34.57;101698.47;5014947;28;20026;-66
2022/05/05 00:29:05;;;;;;;7.65;3.92;;;;;;;21.40;34.89;101695.25;5014792;28;20668;-67
2022/05/05 00:31:30;;;;;;;7.68;3.65;;;;;;;21.37;34.69;101704.63;5014436;28;20030;-66
2022/05/05 00:33:55;;;;;;;10.82;4.88;;;;;;;21.34;34.99;101707.72;5014673;28;20071;-67
2022/05/05 00:36:21;;;;;;;7.80;3.55;;;;;;;21.30;34.75;101703.63;5014227;28;20052;-67
2022/05/05 00:38:46;;;;;;;8.60;3.72;;;;;;;21.28;34.86;101700.25;5014182;28;20084;-67
2022/05/05 00:41:11;;;;;;;17.90;5.32;;;;;;;21.25;35.48;101700.59;5014315;28;20053;-67
2022/05/05 00:43:37;;;;;;;9.32;4.72;;;;;;;21.21;35.04;101699.25;5013972;28;20042;-67
2022/05/05 00:46:03;;;;;;;9.82;4.57;;;;;;;21.18;35.11;101699.63;5018003;28;20471;-67
2022/05/05 00:48:29;;;;;;;8.52;4.40;;;;;;;21.14;34.77;101700.13;5034365;28;20032;-67
2022/05/05 00:50:55;;;;;;;9.75;4.20;;;;;;;21.09;34.99;101695.22;5034834;28;20021;-66
2022/05/05 00:53:21;;;;;;;10.07;4.03;;;;;;;21.05;34.90;101699.28;5034457;28;20044;-66
2022/05/05 00:55:47;;;;;;;9.35;4.05;;;;;;;21.00;35.54;101696.22;5016723;28;20021;-67
2022/05/05 00:58:13;;;;;;;8.40;4.45;;;;;;;20.95;35.37;101698.63;5017078;28;20036;-66
2022/05/05 01:00:38;;;;;;;10.05;4.22;;;;;;;20.90;35.47;101692.88;5049840;28;20103;-67
2022/05/05 01:03:08;;;;;;;11.48;4.40;;;;;;;20.86;35.47;101699.69;5034407;28;20072;-67
2022/05/05 01:05:34;;;;;;;8.82;4.05;;;;;;;20.80;35.32;101698.50;5034353;28;20029;-67
2022/05/05 01:07:59;;;;;;;8.88;4.07;;;;;;;20.74;35.38;101695.66;5034142;28;20025;-67
2022/05/05 01:10:25;;;;;;;10.63;4.50;;;;;;;20.69;35.30;101700.75;5033114;28;20032;-67
2022/05/05 01:12:52;;;;;;;6.97;3.83;;;;;;;20.62;35.51;101702.47;5034330;28;20030;-66
2022/05/05 01:15:18;;;;;;;10.88;4.85;;;;;;;20.55;35.62;101698.72;5034383;28;20021;-67
2022/05/05 01:17:44;;;;;;;10.88;4.28;;;;;;;20.50;35.47;101699.25;5034575;28;20021;-66
2022/05/05 01:20:14;;;;;;;9.02;3.95;;;;;;;20.44;35.74;101704.53;5033989;28;20029;-66
2022/05/05 01:22:40;;;;;;;10.23;4.90;;;;;;;20.36;35.96;101701.81;5034151;28;20025;-66
2022/05/05 01:30:34;;;;;;;12.55;4.10;;;;;;;20.07;36.25;101716.75;5033893;28;20032;-67
2022/05/05 01:32:59;;;;;;;10.82;5.05;;;;;;;19.97;35.70;101707.91;5034044;28;20025;-66
2022/05/05 01:35:25;;;;;;;7.55;3.75;;;;;;;19.91;35.56;101713.16;5033690;28;20108;-67
2022/05/05 01:37:50;;;;;;;7.28;3.88;;;;;;;19.84;35.99;101714.88;5033380;28;20032;-67
2022/05/05 01:40:16;;;;;;;11.40;4.95;;;;;;;19.76;35.82;101716.53;5033670;28;20091;-67
2022/05/05 01:42:41;;;;;;;13.07;4.85;;;;;;;19.70;36.32;101716.38;5034045;28;20036;-66
2022/05/05 01:45:07;;;;;;;11.02;4.65;;;;;;;19.64;35.80;101711.59;5033465;28;20132;-66
2022/05/05 01:47:32;;;;;;;12.32;4.82;;;;;;;19.57;36.00;101724.16;5049146;28;20471;-67
2022/05/05 01:50:01;;;;;;;10.98;4.45;;;;;;;19.50;36.38;101725.81;5033970;28;20071;-67
2022/05/05 01:52:27;;;;;;;8.48;4.13;;;;;;;19.44;36.17;101721.03;5033661;28;20100;-66
2022/05/05 01:54:52;;;;;;;10.13;4.78;;;;;;;19.39;36.56;101712.53;5033621;28;20450;-66
2022/05/05 01:57:18;;;;;;;10.15;4.70;;;;;;;19.35;36.59;101719.28;5033435;28;20057;-67
2022/05/05 01:59:43;;;;;;;11.50;5.45;;;;;;;19.29;36.27;101717.25;5033853;28;20033;-67
2022/05/05 02:02:08;;;;;;;13.00;5.30;;;;;;;19.26;36.73;101723.00;5049320;28;20030;-67
2022/05/05 02:04:34;;;;;;;8.60;3.88;;;;;;;19.22;36.38;101727.91;5033810;28;20021;-66
2022/05/05 02:06:59;;;;;;;12.85;4.88;;;;;;;19.17;36.81;101725.69;5033753;28;20025;-67
2022/05/05 02:09:24;;;;;;;14.98;4.55;;;;;;;19.12;36.30;101725.28;5033305;28;20022;-66
2022/05/05 02:11:50;;;;;;;8.50;4.78;;;;;;;19.06;37.42;101727.84;5033019;28;20043;-67
2022/05/05 02:14:16;;;;;;;9.52;4.03;;;;;;;19.00;37.51;101723.91;5033992;28;20079;-67
2022/05/05 02:16:42;;;;;;;16.20;4.97;;;;;;;18.94;36.80;101729.97;5033692;28;20033;-66
2022/05/05 02:19:07;;;;;;;14.90;5.13;;;;;;;18.88;37.12;101724.31;5033529;28;20108;-67
2022/05/05 02:21:32;;;;;;;9.68;4.22;;;;;;;18.85;37.31;101730.94;5033599;28;20031;-66
2022/05/05 02:23:58;;;;;;;7.75;4.53;;;;;;;18.81;37.34;101735.00;5033701;28;20022;-67
2022/05/05 02:26:23;;;;;;;10.07;5.22;;;;;;;18.80;37.37;101732.41;5033771;28;20451;-67
2022/05/05 02:28:49;;;;;;;9.45;4.10;;;;;;;18.76;37.21;101731.06;5033370;28;20029;-67
2022/05/05 02:31:15;;;;;;;11.88;4.28;;;;;;;18.70;37.81;101737.97;5033815;28;20032;-66
2022/05/05 02:33:41;;;;;;;10.63;4.68;;;;;;;18.66;37.00;101746.56;5037229;28;20418;-67
2022/05/05 02:38:50;;;;;;;10.93;4.60;;;;;;;18.52;37.25;101739.88;5037075;28;20101;-67
2022/05/05 02:41:15;;;;;;;11.82;5.22;;;;;;;18.43;37.93;101735.34;5037073;28;20029;-67
2022/05/05 02:43:41;;;;;;;10.25;4.28;;;;;;;18.40;37.28;101746.50;5036694;28;20080;-67
2022/05/05 02:46:06;;;;;;;9.07;3.55;;;;;;;18.36;38.00;101737.00;5036710;28;20021;-67
2022/05/05 02:48:32;;;;;;;9.30;4.60;;;;;;;18.30;37.05;101743.06;5036451;28;20029;-66
2022/05/05 02:50:57;;;;;;;12.40;4.80;;;;;;;18.25;38.34;101737.25;5036487;28;20025;-67
2022/05/05 02:56:06;;;;;;;7.10;4.65;;;;;;;18.16;38.14;101733.63;5036138;28;20033;-67
2022/05/05 02:58:32;;;;;;;10.60;4.55;;;;;;;18.13;38.91;101735.78;5052066;28;20025;-67
2022/05/05 03:00:57;;;;;;;8.43;4.80;;;;;;;18.12;38.25;101731.38;5036624;28;20494;-66
2022/05/05 03:03:22;;;;;;;15.35;5.05;;;;;;;18.11;38.51;101729.66;5036543;28;20053;-66
2022/05/05 03:05:48;;;;;;;10.55;4.85;;;;;;;18.08;37.48;101738.09;5036494;28;20032;-67
2022/05/05 03:08:13;;;;;;;10.20;4.70;;;;;;;18.02;39.02;101737.72;5036362;28;20018;-66
2022/05/05 03:10:39;;;;;;;12.98;5.00;;;;;;;17.98;38.14;101736.31;5036535;28;20107;-66
2022/05/05 03:13:04;;;;;;;12.60;5.13;;;;;;;17.93;38.70;101738.66;5036460;28;20037;-67
2022/05/05 03:15:30;;;;;;;10.10;5.03;;;;;;;17.92;38.69;101725.25;5036325;28;20025;-68
2022/05/05 03:17:55;;;;;;;11.10;4.55;;;;;;;17.89;38.08;101726.44;5036535;28;20033;-67
2022/05/05 03:20:21;;;;;;;10.43;5.28;;;;;;;17.86;38.65;101726.72;5036299;28;20029;-67
2022/05/05 03:22:46;;;;;;;10.05;4.45;;;;;;;17.82;37.91;101730.75;5036097;28;20029;-66
2022/05/05 03:25:11;;;;;;;11.55;4.57;;;;;;;17.81;38.14;101729.03;5018026;28;20033;-66
2022/05/05 03:27:37;;;;;;;12.40;4.53;;;;;;;17.78;39.48;101729.34;5036024;28;20014;-67
2022/05/05 03:30:03;;;;;;;9.60;4.55;;;;;;;17.74;38.21;101738.78;5035898;28;20036;-67
2022/05/05 03:32:29;;;;;;;9.27;4.80;;;;;;;17.73;38.34;101742.50;5035908;28;20031;-67
2022/05/05 03:34:55;;;;;;;14.40;4.53;;;;;;;17.71;39.20;101740.94;5035739;28;20028;-67
2022/05/05 03:37:20;;;;;;;12.10;4.68;;;;;;;17.65;39.20;101742.41;5035827;28;20030;-67
2022/05/05 03:39:46;;;;;;;10.32;4.93;;;;;;;17.64;38.68;101748.84;5036216;28;20372;-67
2022/05/05 03:42:11;;;;;;;15.43;5.03;;;;;;;17.61;38.49;101748.31;5035542;28;20029;-66
2022/05/05 03:44:37;;;;;;;11.23;5.32;;;;;;;17.58;38.23;101744.03;5035733;28;20392;-67
2022/05/05 03:47:03;;;;;;;10.68;4.35;;;;;;;17.57;40.01;101747.75;5035624;28;20113;-67
2022/05/05 03:49:28;;;;;;;9.77;4.78;;;;;;;17.57;39.55;101753.16;5035759;28;20032;-67
2022/05/05 03:51:56;;;;;;;15.05;5.00;;;;;;;17.58;39.99;101752.16;5035723;28;20421;-68
2022/05/05 03:54:23;;;;;;;14.45;4.90;;;;;;;17.59;39.45;101743.00;5035539;28;20045;-67
2022/05/05 03:56:48;;;;;;;12.52;6.10;;;;;;;17.62;38.73;101744.56;5035528;28;20036;-67
2022/05/05 03:59:14;;;;;;;11.13;4.97;;;;;;;17.62;39.57;101753.56;5035562;28;20029;-68
2022/05/05 04:01:39;;;;;;;13.32;5.57;;;;;;;17.62;39.61;101745.44;5035489;28;20029;-67
2022/05/05 04:04:04;;;;;;;15.65;5.63;;;;;;;17.65;39.15;101750.53;5035372;28;20102;-66
2022/05/05 04:06:30;;;;;;;11.82;4.75;;;;;;;17.67;38.83;101753.94;5035477;28;20028;-67
2022/05/05 04:08:55;;;;;;;15.80;5.30;;;;;;;17.68;38.95;101758.38;5035764;28;20530;-67
2022/05/05 04:11:21;;;;;;;11.73;5.57;;;;;;;17.70;39.89;101753.63;5035374;28;20021;-67
2022/05/05 04:13:46;;;;;;;12.73;5.05;;;;;;;17.73;39.15;101758.75;5035145;28;20057;-67
2022/05/05 04:16:12;;;;;;;7.40;4.45;;;;;;;17.74;40.01;101760.47;5035013;28;20029;-66
2022/05/05 04:18:37;;;;;;;15.38;4.93;;;;;;;17.76;39.30;101763.88;5035144;28;20493;-66
2022/05/05 04:21:03;;;;;;;13.57;5.60;;;;;;;17.79;40.01;101763.56;5035337;28;20092;-66
2022/05/05 04:23:28;;;;;;;11.30;5.50;;;;;;;17.82;39.79;101767.84;5017415;28;20030;-66
2022/05/05 04:25:54;;;;;;;12.18;4.93;;;;;;;17.84;39.60;101769.38;5035210;28;20068;-66
2022/05/05 04:28:19;;;;;;;9.52;4.65;;;;;;;17.87;40.36;101768.22;5034862;28;20022;-66
2022/05/05 04:30:45;;;;;;;10.45;4.45;;;;;;;17.91;39.20;101766.91;5035150;28;20021;-66
2022/05/05 04:33:11;;;;;;;17.33;6.40;;;;;;;17.94;41.03;101764.75;5035049;28;20021;-66
2022/05/05 04:35:36;;;;;;;11.20;4.78;;;;;;;17.98;40.27;101768.00;5034826;28;20029;-67
2022/05/05 04:38:03;;;;;;;10.32;4.75;;;;;;;18.04;39.83;101768.25;5034958;28;20459;-67
2022/05/05 04:40:28;;;;;;;10.02;5.20;;;;;;;18.10;39.19;101776.75;5050332;28;20025;-67
2022/05/05 04:42:54;;;;;;;11.38;5.53;;;;;;;18.13;39.77;101766.47;5034040;28;20479;-67
2022/05/05 04:45:19;;;;;;;11.05;6.30;;;;;;;18.18;40.15;101771.41;5034444;28;20475;-67
2022/05/05 04:47:44;;;;;;;12.13;5.30;;;;;;;18.22;40.90;101773.69;5034481;28;20025;-66
2022/05/05 04:50:10;;;;;;;11.95;5.95;;;;;;;18.27;40.16;101774.06;5016719;28;20029;-66
2022/05/05 04:52:35;;;;;;;9.93;5.28;;;;;;;18.32;39.83;101776.28;5034522;28;20030;-66
2022/05/05 04:55:00;;;;;;;9.98;5.50;;;;;;;18.37;40.42;101779.41;5049318;28;20049;-66
2022/05/05 04:57:26;;;;;;;12.68;6.07;;;;;;;18.42;40.43;101777.06;5034477;28;20399;-66
2022/05/05 04:59:51;;;;;;;15.60;5.65;;;;;;;18.48;40.85;101779.19;5034487;28;20025;-66
2022/05/05 05:02:17;;;;;;;11.43;5.47;;;;;;;18.53;39.45;101780.44;5034380;28;20079;-66
2022/05/05 05:04:42;;;;;;;12.18;5.13;;;;;;;18.60;40.15;101786.06;5034322;28;20025;-66
2022/05/05 05:07:07;;;;;;;13.18;5.13;;;;;;;18.67;39.91;101792.56;5034552;28;20100;-66
2022/05/05 05:09:34;;;;;;;10.85;5.65;;;;;;;18.71;40.15;101777.66;5034335;28;20022;-67
2022/05/05 05:12:00;;;;;;;9.80;5.50;;;;;;;18.79;39.49;101785.84;5033328;28;20035;-66
2022/05/05 05:14:26;;;;;;;14.48;5.72;;;;;;;18.86;39.87;101786.94;5049936;28;20029;-67
2022/05/05 05:16:51;;;;;;;13.25;6.13;;;;;;;18.90;39.65;101785.59;5033946;28;20039;-67
2022/05/05 05:19:17;;;;;;;13.93;5.40;;;;;;;18.98;40.90;101780.22;5034087;28;20108;-67
2022/05/05 05:21:42;;;;;;;11.32;4.72;;;;;;;19.07;40.55;101792.84;5049321;28;20084;-67
2022/05/05 05:24:07;;;;;;;14.02;5.53;;;;;;;19.14;39.93;101791.19;5033987;28;20479;-67
2022/05/05 05:26:33;;;;;;;13.95;5.97;;;;;;;19.26;40.18;101801.78;5034290;28;20030;-66
2022/05/05 05:28:58;;;;;;;11.02;5.35;;;;;;;19.35;40.35;101804.38;5033820;28;20063;-66
2022/05/05 05:31:23;;;;;;;10.60;5.28;;;;;;;19.44;40.10;101808.88;5033810;28;20104;-66
2022/05/05 05:33:49;;;;;;;10.75;4.97;;;;;;;19.54;40.71;101819.63;5033967;28;20532;-67
2022/05/05 05:36:14;;;;;;;14.88;6.15;;;;;;;19.63;40.20;101816.75;5033621;28;20548;-67
2022/05/05 05:38:40;;;;;;;14.73;5.60;;;;;;;19.72;39.66;101817.66;5033884;28;20033;-66
2022/05/05 05:41:06;;;;;;;15.13;5.82;;;;;;;19.80;39.76;101824.97;5033837;28;20025;-67
2022/05/05 05:43:31;;;;;;;13.85;6.10;;;;;;;19.85;40.20;101823.47;5033706;28;20053;-67
2022/05/05 05:45:57;;;;;;;17.27;5.15;;;;;;;19.89;40.15;101819.41;5033990;28;20017;-66
2022/05/05 05:48:22;;;;;;;14.43;5.70;;;;;;;19.95;40.44;101834.22;5016135;28;20105;-66
2022/05/05 05:50:47;;;;;;;10.48;6.22;;;;;;;19.98;40.12;101823.84;5033597;28;20494;-67
2022/05/05 05:53:13;;;;;;;11.55;5.60;;;;;;;20.03;40.16;101829.66;5033327;28;20064;-67
2022/05/05 05:55:38;;;;;;;13.27;6.30;;;;;;;20.10;40.57;101830.66;5033790;28;20109;-67
2022/05/05 05:58:04;;;;;;;14.05;5.63;;;;;;;20.15;40.12;101835.63;5015657;28;20474;-67
2022/05/05 06:00:32;;;;;;;15.05;6.93;;;;;;;20.23;39.87;101843.81;5033543;28;20017;-67
2022/05/05 06:05:42;;;;;;;15.73;6.70;;;;;;;20.39;40.01;101843.00;5035279;28;20087;-67
2022/05/05 06:08:07;;;;;;;16.20;5.85;;;;;;;20.46;40.01;101846.78;5037769;28;20471;-66
2022/05/05 06:10:33;;;;;;;16.85;7.55;;;;;;;20.52;39.72;101837.94;5037919;28;20083;-67
2022/05/05 06:12:58;;;;;;;16.27;6.78;;;;;;;20.58;39.74;101840.81;5037583;28;20033;-66
2022/05/05 06:15:24;;;;;;;14.85;6.82;;;;;;;20.67;39.68;101841.66;5037537;28;20053;-66
2022/05/05 06:17:50;;;;;;;13.88;6.10;;;;;;;20.70;39.60;101844.06;5037871;28;20489;-67
2022/05/05 06:20:16;;;;;;;17.75;6.85;;;;;;;20.74;39.65;101835.38;5037702;28;20053;-67
2022/05/05 06:22:41;;;;;;;12.68;5.80;;;;;;;20.80;39.33;101847.44;5037424;28;20068;-67
2022/05/05 06:25:07;;;;;;;18.65;6.47;;;;;;;20.86;40.08;101836.72;5037474;28;20655;-66
2022/05/05 06:27:33;;;;;;;17.15;6.25;;;;;;;20.92;39.88;101846.94;5037719;28;20028;-67
2022/05/05 06:30:02;;;;;;;16.35;7.22;;;;;;;20.99;39.34;101847.13;5052804;28;20044;-67
2022/05/05 06:32:27;;;;;;;16.98;6.57;;;;;;;21.08;39.36;101846.09;5036798;28;20030;-67
2022/05/05 06:34:54;;;;;;;15.20;6.30;;;;;;;21.17;39.40;101845.06;5037071;28;20538;-67
2022/05/05 06:37:19;;;;;;;14.90;7.03;;;;;;;21.25;39.37;101846.91;5037203;28;20499;-67
2022/05/05 06:39:44;;;;;;;17.00;6.32;;;;;;;21.33;39.26;101850.47;5037305;28;20052;-67
2022/05/05 06:42:10;;;;;;;14.55;6.78;;;;;;;21.41;39.20;101847.72;5037246;28;20034;-67
2022/05/05 06:44:35;;;;;;;19.17;6.20;;;;;;;21.48;39.16;101854.19;5049077;28;20084;-67
2022/05/05 06:47:01;;;;;;;9.90;5.97;;;;;;;21.57;38.82;101846.84;5017320;28;20105;-66
2022/05/05 06:49:26;;;;;;;13.68;6.63;;;;;;;21.67;38.48;101849.34;5017325;28;20391;-66
2022/05/05 06:51:51;;;;;;;16.95;7.55;;;;;;;21.75;38.17;101849.31;5015982;28;20045;-67
2022/05/05 06:54:17;;;;;;;15.80;6.53;;;;;;;21.81;39.18;101846.72;5017265;28;20099;-67
2022/05/05 06:56:42;;;;;;;15.07;6.47;;;;;;;21.87;38.71;101853.38;5017052;28;20026;-67
2022/05/05 06:59:07;;;;;;;14.45;6.45;;;;;;;21.92;38.39;101857.28;5017101;28;20455;-66
2022/05/05 07:07:01;;;;;;;17.10;7.30;;;;;;;22.09;38.05;101858.03;5017379;28;20107;-66
2022/05/05 07:12:11;;;;;;;14.75;6.90;;;;;;;22.28;37.81;101868.50;5016501;28;20052;-67
2022/05/05 07:14:36;;;;;;;16.35;6.53;;;;;;;22.37;38.12;101870.16;5016741;28;20056;-67
2022/05/05 07:17:01;;;;;;;17.83;6.63;;;;;;;22.45;38.00;101872.84;5016269;28;20034;-66
2022/05/05 07:19:27;;;;;;;18.30;8.88;;;;;;;22.52;38.10;101871.09;5016664;28;20109;-66
2022/05/05 07:21:52;;;;;;;17.60;7.18;;;;;;;22.64;37.18;101878.91;5016070;28;20029;-67
2022/05/05 07:24:17;;;;;;;19.85;8.35;;;;;;;22.73;37.94;101880.50;5016694;28;20025;-66
2022/05/05 07:26:43;;;;;;;20.42;7.47;;;;;;;22.84;37.31;101880.09;5016626;28;20022;-66
2022/05/05 07:29:08;;;;;;;16.30;7.88;;;;;;;22.95;37.77;101882.38;5016663;28;20037;-66
2022/05/05 07:31:34;;;;;;;20.50;7.93;;;;;;;23.04;36.84;101884.00;5016585;28;20022;-67
2022/05/05 07:33:59;;;;;;;18.58;7.35;;;;;;;23.13;37.70;101885.66;5016590;28;20033;-66
2022/05/05 07:36:25;;;;;;;14.10;6.55;;;;;;;23.22;36.55;101884.53;5017351;28;20085;-65
2022/05/05 07:38:50;;;;;;;21.08;6.93;;;;;;;23.32;36.40;101889.72;5017322;28;20046;-67
2022/05/05 07:41:15;;;;;;;14.80;7.30;;;;;;;23.42;37.13;101885.72;5048619;28;20488;-67
2022/05/05 07:43:41;;;;;;;17.40;7.55;;;;;;;23.52;36.48;101885.44;5023978;28;20056;-66
2022/05/05 07:46:06;;;;;;;21.90;7.55;;;;;;;23.59;36.64;101889.97;5036441;28;20021;-66
2022/05/05 07:48:31;;;;;;;26.60;7.75;;;;;;;23.69;36.26;101889.69;5038503;28;20040;-66
2022/05/05 07:50:58;;;;;;;20.08;7.30;;;;;;;23.77;36.97;101898.66;5036394;28;20069;-65
2022/05/05 07:53:24;;;;;;;20.70;7.43;;;;;;;23.85;36.50;101897.72;5037530;28;20383;-67
2022/05/05 07:55:49;;;;;;;22.17;8.07;;;;;;;23.94;36.92;101903.94;5035992;28;20025;-67
2022/05/05 07:58:14;;;;;;;20.85;8.30;;;;;;;23.98;36.41;101902.53;5035446;28;20525;-66
2022/05/05 08:00:40;;;;;;;16.35;8.25;;;;;;;24.02;36.23;101910.16;5035647;28;20041;-67
2022/05/05 08:03:05;;;;;;;17.40;8.85;;;;;;;24.09;36.77;101904.78;5035874;28;20464;-66
2022/05/05 08:05:30;;;;;;;17.95;8.10;;;;;;;24.17;36.42;101907.44;5035701;28;20490;-66
2022/05/05 08:07:56;;;;;;;20.23;8.48;;;;;;;24.25;36.20;101907.31;5035579;28;20021;-67
2022/05/05 08:10:21;;;;;;;16.85;8.38;;;;;;;24.33;36.01;101905.31;5036053;28;20103;-66
2022/05/05 08:12:47;;;;;;;17.63;8.07;;;;;;;24.40;36.27;101908.13;5035682;28;20532;-66
2022/05/05 08:15:18;;;;;;;22.58;8.75;;;;;;;24.46;36.02;101912.81;5035628;28;20112;-67
2022/05/05 08:17:45;;;;;;;18.30;8.75;;;;;;;24.54;35.33;101914.63;5035574;28;20151;-67
2022/05/05 08:20:10;;;;;;;21.00;8.50;;;;;;;24.59;36.07;101912.16;5035410;28;20022;-66
2022/05/05 08:22:37;;;;;;;19.85;9.35;;;;;;;24.69;35.25;101913.50;5035189;28;20021;-66
2022/05/05 08:30:32;;;;;;;21.45;9.52;;;;;;;24.95;35.43;101912.97;5034298;28;20052;-66
2022/05/05 08:32:57;;;;;;;23.20;10.98;;;;;;;25.01;35.24;101920.41;5035265;28;20467;-66
2022/05/05 08:35:22;;;;;;;24.85;9.52;;;;;;;25.10;35.48;101921.13;5035205;28;20032;-67
2022/05/05 08:37:52;;;;;;;30.45;12.43;;;;;;;25.19;34.75;101919.91;5034843;28;20025;-67
2022/05/05 08:40:18;;;;;;;27.85;12.18;;;;;;;25.29;35.25;101920.44;5034983;28;20505;-67
2022/05/05 08:42:44;;;;;;;24.17;10.70;;;;;;;25.39;34.72;101926.41;5034866;28;20152;-67
2022/05/05 08:45:09;;;;;;;30.23;14.20;;;;;;;25.52;34.28;101917.47;5034445;28;20072;-67
2022/05/05 08:47:36;;;;;;;34.10;16.60;;;;;;;25.63;34.49;101922.41;5034773;28;20068;-66
2022/05/05 08:50:02;;;;;;;34.90;16.13;;;;;;;25.78;34.16;101921.22;5034842;28;20022;-66
2022/05/05 08:52:35;;;;;;;30.98;15.00;;;;;;;25.91;34.41;101925.94;5034662;28;20399;-67
2022/05/05 08:55:01;;;;;;;31.70;15.60;;;;;;;26.00;34.07;101925.56;5034581;28;20032;-67
2022/05/05 08:57:27;;;;;;;30.52;14.27;;;;;;;26.13;34.05;101926.69;5034567;28;20475;-67
2022/05/05 08:59:55;;;;;;;30.58;14.65;;;;;;;26.24;33.69;101923.41;5034691;28;20028;-66
2022/05/05 09:02:21;;;;;;;31.00;15.40;;;;;;;26.38;33.70;101923.22;5035054;28;20045;-66
2022/05/05 09:04:47;;;;;;;29.58;14.40;;;;;;;26.56;33.50;101930.91;5034351;28;20048;-66
2022/05/05 09:07:12;;;;;;;29.70;14.25;;;;;;;26.72;33.32;101930.50;5034431;28;20025;-66
2022/05/05 09:09:38;;;;;;;37.42;16.15;;;;;;;26.88;32.99;101930.19;5033328;28;20040;-67
2022/05/05 09:12:15;;;;;;;26.23;14.07;;;;;;;27.05;32.71;101930.63;5012254;28;20029;-66
2022/05/05 09:14:41;;;;;;;29.27;14.85;;;;;;;27.25;32.43;101925.13;5030571;28;20112;-67
2022/05/05 09:17:07;;;;;;;32.17;14.88;;;;;;;27.43;32.79;101928.09;5033039;28;20498;-67
2022/05/05 09:19:40;;;;;;;31.70;14.85;;;;;;;27.64;31.90;101931.44;5050644;28;20062;-67
2022/05/05 09:22:06;;;;;;;31.17;15.15;;;;;;;27.88;32.48;101924.41;5054011;28;20078;-67
2022/05/05 09:24:35;;;;;;;26.88;14.85;;;;;;;28.16;32.15;101930.50;5054513;28;20029;-67
2022/05/05 09:27:20;;;;;;;35.53;16.10;;;;;;;28.46;31.05;101928.03;5054339;28;20029;-66
2022/05/05 09:30:12;;;;;;;32.92;15.95;;;;;;;28.73;30.79;101932.34;5054072;28;20052;-66
2022/05/05 09:32:40;;;;;;;28.40;15.00;;;;;;;28.85;31.71;101930.59;5054064;28;20025;-66
2022/05/05 09:35:16;;;;;;;35.50;15.60;;;;;;;29.03;30.51;101927.06;5053904;28;20036;-67
2022/05/05 09:37:48;;;;;;;28.63;16.42;;;;;;;29.20;30.89;101928.19;5053895;28;20021;-66
2022/05/05 09:40:17;;;;;;;29.70;13.88;;;;;;;29.38;31.51;101928.28;5053378;28;20021;-65
2022/05/05 09:42:50;;;;;;;26.95;14.10;;;;;;;29.63;30.15;101921.88;5053217;28;20032;-67
2022/05/05 09:45:29;;;;;;;25.67;14.40;;;;;;;29.91;30.28;101928.63;5053623;28;20053;-67
2022/05/05 09:48:02;;;;;;;31.23;13.88;;;;;;;30.19;29.61;101918.91;5053075;28;20494;-67
2022/05/05 09:50:33;;;;;;;28.92;14.20;;;;;;;30.34;29.63;101922.13;5053303;28;20496;-67
2022/05/05 09:58:39;;;;;;;33.00;14.68;;;;;;;30.88;29.71;101927.53;5052936;28;20401;-67
2022/05/05 10:01:11;;;;;;;30.45;16.25;;;;;;;31.50;28.77;101920.59;5052819;28;20021;-66
2022/05/05 10:04:01;;;;;;;;;;;;;;;32.14;28.39;101932.59;5053321;28;20350;-67
2022/05/05 10:06:32;;;;;;;28.85;14.35;;;;;;;33.02;27.45;101929.34;5048498;28;20338;-67
2022/05/05 10:09:06;;;;;;;23.65;13.32;;;;;;;32.81;28.01;101929.00;5033484;28;20090;-67
2022/05/05 10:11:32;;;;;;;25.08;13.73;;;;;;;32.38;28.31;101928.69;5033170;28;20033;-66
2022/05/05 10:14:00;;;;;;;27.70;13.52;;;;;;;32.81;27.32;101937.31;5032974;28;20112;-66
2022/05/05 10:16:26;;;;;;;24.98;14.18;;;;;;;33.19;27.49;101939.44;5032873;28;20082;-67
2022/05/05 10:18:52;;;;;;;27.25;14.50;;;;;;;33.19;27.46;101935.81;5033128;28;20024;-67
2022/05/05 10:21:38;;;;;;;23.00;13.75;;;;;;;32.61;27.11;101927.78;5033929;28;20391;-68
2022/05/05 10:24:20;;;;;;;25.08;12.82;;;;;;;32.17;27.75;101934.88;5034343;28;20083;-67
2022/05/05 10:26:56;;;;;;;24.40;13.15;;;;;;;31.81;27.78;101946.25;5015301;28;20060;-68
2022/05/05 10:29:31;;;;;;;27.52;14.38;;;;;;;31.88;27.31;101941.44;5032639;28;20422;-66
2022/05/05 10:32:06;;;;;;;25.92;14.35;;;;;;;32.63;27.37;101934.78;5033025;28;20036;-67
2022/05/05 10:34:32;;;;;;;26.25;13.27;;;;;;;33.28;25.69;101939.81;5033127;28;20037;-67
2022/05/05 10:37:03;;;;;;;26.23;13.40;;;;;;;33.96;26.55;101932.03;5033047;28;20387;-67
2022/05/05 10:39:47;;;;;;;25.48;13.55;;;;;;;34.26;25.27;101928.81;5032847;28;20422;-67
2022/05/05 10:42:20;;;;;;;24.08;14.15;;;;;;;34.49;25.08;101928.53;5032771;28;20029;-63
2022/05/05 10:45:05;;;;;;;22.40;11.40;;;;;;;34.89;25.05;101933.72;5029753;28;20049;-67
2022/05/05 10:47:57;;;;;;;20.52;12.52;;;;;;;35.36;24.17;101924.69;5028503;28;20534;-67
2022/05/05 10:50:36;;;;;;;27.63;15.13;;;;;;;35.78;24.11;101928.34;5022351;28;20561;-68
2022/05/05 10:53:03;;;;;;;23.15;14.05;;;;;;;35.97;24.27;101923.97;5024616;28;20349;-69
2022/05/05 10:55:31;;;;;;;22.83;12.85;;;;;;;36.16;24.01;101916.84;5024072;28;20091;-68
2022/05/05 10:57:56;;;;;;;31.55;12.57;;;;;;;36.35;23.92;101916.38;5025144;28;20048;-67
2022/05/05 11:00:23;;;;;;;25.77;14.65;;;;;;;36.40;23.86;101919.16;5026200;28;20021;-68
2022/05/05 11:02:57;;;;;;;26.65;14.10;;;;;;;36.30;23.66;101930.28;5026376;28;20061;-67
2022/05/05 11:05:27;;;;;;;24.15;14.63;;;;;;;36.81;23.23;101926.53;5026586;28;20034;-67
2022/05/05 11:08:19;;;;;;;24.58;13.35;;;;;;;37.22;23.16;101933.84;5035000;28;20112;-68
2022/05/05 11:11:39;;;;;;;22.60;12.07;;;;;;;37.52;22.22;101918.22;5004055;28;20029;-67
2022/05/05 11:13:45;;;;;;;19.73;12.57;;;;;;;37.80;22.14;101921.19;5010135;28;20112;-67
2022/05/05 11:22:24;;;;;;;17.48;10.77;;;;;;;36.82;22.80;101905.88;5036453;28;20442;-66
2022/05/05 11:24:52;;;;;;;19.75;10.88;;;;;;;36.21;23.30;101916.84;5018048;28;20025;-68
2022/05/05 11:27:17;;;;;;;19.20;9.75;;;;;;;36.03;23.42;101914.56;5035927;28;20022;-67
2022/05/05 11:29:53;;;;;;;17.05;10.25;;;;;;;36.14;22.97;101921.03;5018758;28;20494;-66
2022/05/05 11:32:19;;;;;;;18.25;10.98;;;;;;;36.01;22.80;101919.56;5016220;28;20097;-66
2022/05/05 11:34:46;;;;;;;18.33;11.15;;;;;;;35.29;23.47;101912.94;5015859;28;20026;-66
2022/05/05 11:37:12;;;;;;;23.42;12.02;;;;;;;34.57;23.37;101921.69;5015760;28;20022;-66
2022/05/05 11:39:38;;;;;;;18.10;9.80;;;;;;;33.93;23.62;101926.13;5015944;28;20021;-66
2022/05/05 11:42:07;;;;;;;14.35;9.40;;;;;;;33.41;23.80;101928.38;5015925;28;20101;-66
2022/05/05 11:44:40;;;;;;;20.13;10.82;;;;;;;33.48;23.33;101928.19;5015754;28;20515;-66
2022/05/05 11:47:11;;;;;;;15.60;10.73;;;;;;;33.96;24.08;101920.91;5015858;28;20037;-66
2022/05/05 11:49:36;;;;;;;16.92;9.90;;;;;;;34.43;22.57;101914.81;5018395;28;20040;-65
2022/05/05 11:52:03;;;;;;;17.50;9.68;;;;;;;34.91;22.70;101917.59;5015734;28;20406;-65
2022/05/05 11:54:32;;;;;;;19.17;11.25;;;;;;;34.97;22.53;101908.19;5015710;28;20033;-65
2022/05/05 11:56:57;;;;;;;16.90;9.93;;;;;;;34.27;22.98;101910.19;5015928;28;20030;-67
2022/05/05 12:02:10;;;;;;;19.98;11.43;;;;;;;33.46;23.93;101909.00;5037144;28;20094;-66